sensor_id;sensor_type;location;lat;lon;timestamp;temperature;humidity
32612;DHT22;19030;49.478;8.986;2022-12-07T00:00:41;2.40;99.90
32612;DHT22;19030;49.478;8.986;2022-12-07T00:02:42;2.40;99.90
32612;DHT22;19030;49.478;8.986;2022-12-07T00:04:42;2.40;99.90
32612;DHT22;19030;49.478;8.986;2022-12-07T00:06:45;2.40;99.90
32612;DHT22;19030;49.478;8.986;2022-12-07T00:08:46;2.40;99.90
32612;DHT22;19030;49.478;8.986;2022-12-07T00:10:47;2.30;99.90
32612;DHT22;19030;49.478;8.986;2022-12-07T00:12:48;2.30;99.90
32612;DHT22;19030;49.478;8.986;2022-12-07T00:14:48;2.40;99.90
32612;DHT22;19030;49.478;8.986;2022-12-07T00:16:50;2.40;99.90
32612;DHT22;19030;49.478;8.986;2022-12-07T00:18:51;2.40;99.90
32612;DHT22;19030;49.478;8.986;2022-12-07T00:20:52;2.30;99.90
32612;DHT22;19030;49.478;8.986;2022-12-07T00:22:52;2.30;99.90
32612;DHT22;19030;49.478;8.986;2022-12-07T00:24:53;2.30;99.90
32612;DHT22;19030;49.478;8.986;2022-12-07T00:26:53;2.30;99.90
32612;DHT22;19030;49.478;8.986;2022-12-07T00:28:56;2.30;99.90
32612;DHT22;19030;49.478;8.986;2022-12-07T00:31:02;2.30;99.90
32612;DHT22;19030;49.478;8.986;2022-12-07T00:33:03;2.30;99.90
32612;DHT22;19030;49.478;8.986;2022-12-07T00:35:03;2.30;99.90
32612;DHT22;19030;49.478;8.986;2022-12-07T00:37:04;2.40;99.90
32612;DHT22;19030;49.478;8.986;2022-12-07T00:39:05;2.40;99.90
32612;DHT22;19030;49.478;8.986;2022-12-07T00:41:11;2.50;99.90
32612;DHT22;19030;49.478;8.986;2022-12-07T00:43:12;2.50;99.90
32612;DHT22;19030;49.478;8.986;2022-12-07T00:45:12;2.60;99.90
32612;DHT22;19030;49.478;8.986;2022-12-07T00:47:13;2.60;99.90
32612;DHT22;19030;49.478;8.986;2022-12-07T00:49:13;2.60;99.90
32612;DHT22;19030;49.478;8.986;2022-12-07T00:51:15;2.60;99.90
32612;DHT22;19030;49.478;8.986;2022-12-07T00:53:17;2.60;99.90
32612;DHT22;19030;49.478;8.986;2022-12-07T00:55:17;2.60;99.90
32612;DHT22;19030;49.478;8.986;2022-12-07T00:57:18;2.60;99.90
32612;DHT22;19030;49.478;8.986;2022-12-07T00:59:18;2.60;99.90
32612;DHT22;19030;49.478;8.986;2022-12-07T01:01:19;2.60;99.90
32612;DHT22;19030;49.478;8.986;2022-12-07T01:03:20;2.50;99.90
32612;DHT22;19030;49.478;8.986;2022-12-07T01:05:20;2.50;99.90
32612;DHT22;19030;49.478;8.986;2022-12-07T01:07:21;2.60;99.90
32612;DHT22;19030;49.478;8.986;2022-12-07T01:09:21;2.60;99.90
32612;DHT22;19030;49.478;8.986;2022-12-07T01:11:25;2.60;99.90
32612;DHT22;19030;49.478;8.986;2022-12-07T01:13:26;2.60;99.90
32612;DHT22;19030;49.478;8.986;2022-12-07T01:15:28;2.50;99.90
32612;DHT22;19030;49.478;8.986;2022-12-07T01:17:29;2.60;99.90
32612;DHT22;19030;49.478;8.986;2022-12-07T01:19:29;2.60;99.90
32612;DHT22;19030;49.478;8.986;2022-12-07T01:21:34;2.60;99.90
32612;DHT22;19030;49.478;8.986;2022-12-07T01:23:36;2.60;99.90
32612;DHT22;19030;49.478;8.986;2022-12-07T01:25:37;2.60;99.90
32612;DHT22;19030;49.478;8.986;2022-12-07T01:27:38;2.60;99.90
32612;DHT22;19030;49.478;8.986;2022-12-07T01:29:38;2.60;99.90
32612;DHT22;19030;49.478;8.986;2022-12-07T01:31:39;2.60;99.90
32612;DHT22;19030;49.478;8.986;2022-12-07T01:33:40;2.60;99.90
32612;DHT22;19030;49.478;8.986;2022-12-07T01:35:40;2.50;99.90
32612;DHT22;19030;49.478;8.986;2022-12-07T01:37:41;2.60;99.90
32612;DHT22;19030;49.478;8.986;2022-12-07T01:39:41;2.60;99.90
32612;DHT22;19030;49.478;8.986;2022-12-07T01:41:42;2.60;99.90
32612;DHT22;19030;49.478;8.986;2022-12-07T01:44:10;2.60;99.90
32612;DHT22;19030;49.478;8.986;2022-12-07T01:46:11;2.60;99.90
32612;DHT22;19030;49.478;8.986;2022-12-07T01:48:15;2.60;99.90
32612;DHT22;19030;49.478;8.986;2022-12-07T01:50:17;2.60;99.90
32612;DHT22;19030;49.478;8.986;2022-12-07T01:52:29;2.60;99.90
32612;DHT22;19030;49.478;8.986;2022-12-07T01:54:31;2.60;99.90
32612;DHT22;19030;49.478;8.986;2022-12-07T01:56:32;2.70;99.90
32612;DHT22;19030;49.478;8.986;2022-12-07T01:58:33;2.70;99.90
32612;DHT22;19030;49.478;8.986;2022-12-07T02:00:34;2.60;99.90
32612;DHT22;19030;49.478;8.986;2022-12-07T02:02:59;2.70;99.90
32612;DHT22;19030;49.478;8.986;2022-12-07T02:05:04;2.70;99.90
32612;DHT22;19030;49.478;8.986;2022-12-07T02:07:06;2.60;99.90
32612;DHT22;19030;49.478;8.986;2022-12-07T02:09:06;2.60;99.90
32612;DHT22;19030;49.478;8.986;2022-12-07T02:11:08;2.60;99.90
32612;DHT22;19030;49.478;8.986;2022-12-07T02:13:13;2.60;99.90
32612;DHT22;19030;49.478;8.986;2022-12-07T02:15:14;2.60;99.90
32612;DHT22;19030;49.478;8.986;2022-12-07T02:17:25;2.60;99.90
32612;DHT22;19030;49.478;8.986;2022-12-07T02:24:14;2.60;99.90
32612;DHT22;19030;49.478;8.986;2022-12-07T02:28:35;2.60;99.90
32612;DHT22;19030;49.478;8.986;2022-12-07T02:30:42;2.60;99.90
32612;DHT22;19030;49.478;8.986;2022-12-07T02:33:05;2.60;99.90
32612;DHT22;19030;49.478;8.986;2022-12-07T02:35:33;2.60;99.90
32612;DHT22;19030;49.478;8.986;2022-12-07T02:38:07;2.70;99.90
32612;DHT22;19030;49.478;8.986;2022-12-07T02:42:19;2.60;99.90
32612;DHT22;19030;49.478;8.986;2022-12-07T02:44:25;2.60;99.90
32612;DHT22;19030;49.478;8.986;2022-12-07T02:46:31;2.60;99.90
32612;DHT22;19030;49.478;8.986;2022-12-07T02:48:33;2.60;99.90
32612;DHT22;19030;49.478;8.986;2022-12-07T02:50:34;2.60;99.90
32612;DHT22;19030;49.478;8.986;2022-12-07T02:52:34;2.60;99.90
32612;DHT22;19030;49.478;8.986;2022-12-07T02:54:35;2.60;99.90
32612;DHT22;19030;49.478;8.986;2022-12-07T02:58:56;2.60;99.90
32612;DHT22;19030;49.478;8.986;2022-12-07T03:01:26;2.60;99.90
32612;DHT22;19030;49.478;8.986;2022-12-07T03:03:28;2.60;99.90
32612;DHT22;19030;49.478;8.986;2022-12-07T03:12:50;2.60;99.90
32612;DHT22;19030;49.478;8.986;2022-12-07T03:15:13;2.60;99.90
32612;DHT22;19030;49.478;8.986;2022-12-07T03:17:17;2.60;99.90
32612;DHT22;19030;49.478;8.986;2022-12-07T03:19:21;2.70;99.90
32612;DHT22;19030;49.478;8.986;2022-12-07T03:21:33;2.70;99.90
32612;DHT22;19030;49.478;8.986;2022-12-07T03:23:37;2.70;99.90
32612;DHT22;19030;49.478;8.986;2022-12-07T03:25:42;2.80;99.90
32612;DHT22;19030;49.478;8.986;2022-12-07T03:27:58;2.70;99.90
32612;DHT22;19030;49.478;8.986;2022-12-07T03:30:09;2.80;99.90
32612;DHT22;19030;49.478;8.986;2022-12-07T03:32:19;2.80;99.90
32612;DHT22;19030;49.478;8.986;2022-12-07T03:34:36;2.80;99.90
32612;DHT22;19030;49.478;8.986;2022-12-07T03:37:02;2.80;99.90
32612;DHT22;19030;49.478;8.986;2022-12-07T03:39:24;2.80;99.90
32612;DHT22;19030;49.478;8.986;2022-12-07T03:41:34;2.80;99.90
32612;DHT22;19030;49.478;8.986;2022-12-07T03:43:37;2.80;99.90
32612;DHT22;19030;49.478;8.986;2022-12-07T03:45:40;2.80;99.90
32612;DHT22;19030;49.478;8.986;2022-12-07T03:48:03;2.80;99.90
32612;DHT22;19030;49.478;8.986;2022-12-07T03:52:30;2.80;99.90
32612;DHT22;19030;49.478;8.986;2022-12-07T03:55:17;2.70;99.90
32612;DHT22;19030;49.478;8.986;2022-12-07T03:56:59;2.70;99.90
32612;DHT22;19030;49.478;8.986;2022-12-07T03:59:01;2.80;99.90
32612;DHT22;19030;49.478;8.986;2022-12-07T04:01:02;2.70;99.90
32612;DHT22;19030;49.478;8.986;2022-12-07T04:03:02;2.70;99.90
32612;DHT22;19030;49.478;8.986;2022-12-07T04:05:03;2.70;99.90
32612;DHT22;19030;49.478;8.986;2022-12-07T04:07:04;2.80;99.90
32612;DHT22;19030;49.478;8.986;2022-12-07T04:09:05;2.80;99.90
32612;DHT22;19030;49.478;8.986;2022-12-07T04:11:05;2.70;99.90
32612;DHT22;19030;49.478;8.986;2022-12-07T04:13:06;2.80;99.90
32612;DHT22;19030;49.478;8.986;2022-12-07T04:15:07;2.70;99.90
32612;DHT22;19030;49.478;8.986;2022-12-07T04:17:08;2.70;99.90
32612;DHT22;19030;49.478;8.986;2022-12-07T04:19:09;2.80;99.90
32612;DHT22;19030;49.478;8.986;2022-12-07T04:21:09;2.70;99.90
32612;DHT22;19030;49.478;8.986;2022-12-07T04:23:10;2.70;99.90
32612;DHT22;19030;49.478;8.986;2022-12-07T04:25:10;2.70;99.90
32612;DHT22;19030;49.478;8.986;2022-12-07T04:27:11;2.70;99.90
32612;DHT22;19030;49.478;8.986;2022-12-07T04:29:13;2.70;99.90
32612;DHT22;19030;49.478;8.986;2022-12-07T04:31:14;2.70;99.90
32612;DHT22;19030;49.478;8.986;2022-12-07T04:33:14;2.80;99.90
32612;DHT22;19030;49.478;8.986;2022-12-07T04:35:15;2.80;99.90
32612;DHT22;19030;49.478;8.986;2022-12-07T04:37:16;2.80;99.90
32612;DHT22;19030;49.478;8.986;2022-12-07T04:39:23;2.80;99.90
32612;DHT22;19030;49.478;8.986;2022-12-07T04:41:24;2.80;99.90
32612;DHT22;19030;49.478;8.986;2022-12-07T04:43:28;2.80;99.90
32612;DHT22;19030;49.478;8.986;2022-12-07T04:45:29;2.80;99.90
32612;DHT22;19030;49.478;8.986;2022-12-07T04:47:29;2.80;99.90
32612;DHT22;19030;49.478;8.986;2022-12-07T04:49:30;2.80;99.90
32612;DHT22;19030;49.478;8.986;2022-12-07T04:51:31;2.80;99.90
32612;DHT22;19030;49.478;8.986;2022-12-07T04:53:31;2.80;99.90
32612;DHT22;19030;49.478;8.986;2022-12-07T04:55:32;2.80;99.90
32612;DHT22;19030;49.478;8.986;2022-12-07T04:57:32;2.80;99.90
32612;DHT22;19030;49.478;8.986;2022-12-07T04:59:33;2.80;99.90
32612;DHT22;19030;49.478;8.986;2022-12-07T05:01:33;2.80;99.90
32612;DHT22;19030;49.478;8.986;2022-12-07T05:03:35;2.90;99.90
32612;DHT22;19030;49.478;8.986;2022-12-07T05:05:36;2.90;99.90
32612;DHT22;19030;49.478;8.986;2022-12-07T05:07:36;2.90;99.90
32612;DHT22;19030;49.478;8.986;2022-12-07T05:09:37;2.90;99.90
32612;DHT22;19030;49.478;8.986;2022-12-07T05:11:37;2.90;99.90
32612;DHT22;19030;49.478;8.986;2022-12-07T05:13:38;2.90;99.90
32612;DHT22;19030;49.478;8.986;2022-12-07T05:15:38;2.90;99.90
32612;DHT22;19030;49.478;8.986;2022-12-07T05:17:39;2.90;99.90
32612;DHT22;19030;49.478;8.986;2022-12-07T05:19:39;2.90;99.90
32612;DHT22;19030;49.478;8.986;2022-12-07T05:21:40;2.90;99.90
32612;DHT22;19030;49.478;8.986;2022-12-07T05:23:41;2.90;99.90
32612;DHT22;19030;49.478;8.986;2022-12-07T05:25:41;3.00;99.90
32612;DHT22;19030;49.478;8.986;2022-12-07T05:27:42;3.00;99.90
32612;DHT22;19030;49.478;8.986;2022-12-07T05:29:42;3.00;99.90
32612;DHT22;19030;49.478;8.986;2022-12-07T05:31:43;3.00;99.90
32612;DHT22;19030;49.478;8.986;2022-12-07T05:33:44;3.00;99.90
32612;DHT22;19030;49.478;8.986;2022-12-07T05:35:44;3.00;99.90
32612;DHT22;19030;49.478;8.986;2022-12-07T05:37:45;3.00;99.90
32612;DHT22;19030;49.478;8.986;2022-12-07T05:39:46;3.00;99.90
32612;DHT22;19030;49.478;8.986;2022-12-07T05:41:46;3.00;99.90
32612;DHT22;19030;49.478;8.986;2022-12-07T05:44:05;3.00;99.90
32612;DHT22;19030;49.478;8.986;2022-12-07T05:46:06;2.90;99.90
32612;DHT22;19030;49.478;8.986;2022-12-07T05:48:06;2.90;99.90
32612;DHT22;19030;49.478;8.986;2022-12-07T05:50:07;2.90;99.90
32612;DHT22;19030;49.478;8.986;2022-12-07T05:52:08;2.90;99.90
32612;DHT22;19030;49.478;8.986;2022-12-07T05:54:08;3.00;99.90
32612;DHT22;19030;49.478;8.986;2022-12-07T05:56:09;2.90;99.90
32612;DHT22;19030;49.478;8.986;2022-12-07T05:58:10;3.00;99.90
32612;DHT22;19030;49.478;8.986;2022-12-07T06:00:29;3.00;99.90
32612;DHT22;19030;49.478;8.986;2022-12-07T06:02:30;3.00;99.90
32612;DHT22;19030;49.478;8.986;2022-12-07T06:04:33;3.00;99.90
32612;DHT22;19030;49.478;8.986;2022-12-07T06:06:34;3.00;99.90
32612;DHT22;19030;49.478;8.986;2022-12-07T06:08:35;3.00;99.90
32612;DHT22;19030;49.478;8.986;2022-12-07T06:10:36;3.00;99.90
32612;DHT22;19030;49.478;8.986;2022-12-07T06:12:36;3.00;99.90
32612;DHT22;19030;49.478;8.986;2022-12-07T06:14:40;3.00;99.90
32612;DHT22;19030;49.478;8.986;2022-12-07T06:16:41;3.00;99.90
32612;DHT22;19030;49.478;8.986;2022-12-07T06:18:41;3.10;99.90
32612;DHT22;19030;49.478;8.986;2022-12-07T06:20:42;3.10;99.90
32612;DHT22;19030;49.478;8.986;2022-12-07T06:22:42;3.00;99.90
32612;DHT22;19030;49.478;8.986;2022-12-07T06:24:43;3.10;99.90
32612;DHT22;19030;49.478;8.986;2022-12-07T06:26:44;3.10;99.90
32612;DHT22;19030;49.478;8.986;2022-12-07T06:28:45;3.10;99.90
32612;DHT22;19030;49.478;8.986;2022-12-07T06:30:45;3.10;99.90
32612;DHT22;19030;49.478;8.986;2022-12-07T06:32:46;3.10;99.90
32612;DHT22;19030;49.478;8.986;2022-12-07T06:34:46;3.10;99.90
32612;DHT22;19030;49.478;8.986;2022-12-07T06:36:48;3.10;99.90
32612;DHT22;19030;49.478;8.986;2022-12-07T06:38:52;3.10;99.90
32612;DHT22;19030;49.478;8.986;2022-12-07T06:40:52;3.10;99.90
32612;DHT22;19030;49.478;8.986;2022-12-07T06:42:53;3.10;99.90
32612;DHT22;19030;49.478;8.986;2022-12-07T06:44:54;3.10;99.90
32612;DHT22;19030;49.478;8.986;2022-12-07T06:46:54;3.10;99.90
32612;DHT22;19030;49.478;8.986;2022-12-07T06:48:55;3.10;99.90
32612;DHT22;19030;49.478;8.986;2022-12-07T06:50:55;3.10;99.90
32612;DHT22;19030;49.478;8.986;2022-12-07T06:52:56;3.10;99.90
32612;DHT22;19030;49.478;8.986;2022-12-07T06:54:56;3.10;99.90
32612;DHT22;19030;49.478;8.986;2022-12-07T06:56:57;3.10;99.90
32612;DHT22;19030;49.478;8.986;2022-12-07T06:58:58;3.10;99.90
32612;DHT22;19030;49.478;8.986;2022-12-07T07:00:58;3.10;99.90
32612;DHT22;19030;49.478;8.986;2022-12-07T07:02:59;3.10;99.90
32612;DHT22;19030;49.478;8.986;2022-12-07T07:05:00;3.10;99.90
32612;DHT22;19030;49.478;8.986;2022-12-07T07:07:00;3.10;99.90
32612;DHT22;19030;49.478;8.986;2022-12-07T07:09:01;3.10;99.90
32612;DHT22;19030;49.478;8.986;2022-12-07T07:11:02;3.10;99.90
32612;DHT22;19030;49.478;8.986;2022-12-07T07:13:03;3.10;99.90
32612;DHT22;19030;49.478;8.986;2022-12-07T07:15:04;3.10;99.90
32612;DHT22;19030;49.478;8.986;2022-12-07T07:17:05;3.20;99.90
32612;DHT22;19030;49.478;8.986;2022-12-07T07:19:05;3.10;99.90
32612;DHT22;19030;49.478;8.986;2022-12-07T07:21:06;3.10;99.90
32612;DHT22;19030;49.478;8.986;2022-12-07T07:23:07;3.10;99.90
32612;DHT22;19030;49.478;8.986;2022-12-07T07:25:07;3.10;99.90
32612;DHT22;19030;49.478;8.986;2022-12-07T07:27:08;3.20;99.90
32612;DHT22;19030;49.478;8.986;2022-12-07T07:29:08;3.20;99.90
32612;DHT22;19030;49.478;8.986;2022-12-07T07:31:09;3.20;99.90
32612;DHT22;19030;49.478;8.986;2022-12-07T07:33:10;3.20;99.90
32612;DHT22;19030;49.478;8.986;2022-12-07T07:35:11;3.20;99.90
32612;DHT22;19030;49.478;8.986;2022-12-07T07:37:12;3.20;99.90
32612;DHT22;19030;49.478;8.986;2022-12-07T07:39:13;3.10;99.90
32612;DHT22;19030;49.478;8.986;2022-12-07T07:41:13;3.10;99.90
32612;DHT22;19030;49.478;8.986;2022-12-07T07:43:14;3.20;99.90
32612;DHT22;19030;49.478;8.986;2022-12-07T07:45:14;3.10;99.90
32612;DHT22;19030;49.478;8.986;2022-12-07T07:47:15;3.10;99.90
32612;DHT22;19030;49.478;8.986;2022-12-07T07:49:16;3.10;99.90
32612;DHT22;19030;49.478;8.986;2022-12-07T07:51:16;3.10;99.90
32612;DHT22;19030;49.478;8.986;2022-12-07T07:53:17;3.10;99.90
32612;DHT22;19030;49.478;8.986;2022-12-07T07:55:17;3.20;99.90
32612;DHT22;19030;49.478;8.986;2022-12-07T07:57:18;3.20;99.90
32612;DHT22;19030;49.478;8.986;2022-12-07T07:59:19;3.20;99.90
32612;DHT22;19030;49.478;8.986;2022-12-07T08:01:19;3.20;99.90
32612;DHT22;19030;49.478;8.986;2022-12-07T08:03:20;3.20;99.90
32612;DHT22;19030;49.478;8.986;2022-12-07T08:05:20;3.20;99.90
32612;DHT22;19030;49.478;8.986;2022-12-07T08:07:21;3.20;99.90
32612;DHT22;19030;49.478;8.986;2022-12-07T08:09:21;3.20;99.90
32612;DHT22;19030;49.478;8.986;2022-12-07T08:11:22;3.20;99.90
32612;DHT22;19030;49.478;8.986;2022-12-07T08:13:22;3.20;99.90
32612;DHT22;19030;49.478;8.986;2022-12-07T08:15:24;3.20;99.90
32612;DHT22;19030;49.478;8.986;2022-12-07T08:17:24;3.40;99.90
32612;DHT22;19030;49.478;8.986;2022-12-07T08:19:25;3.40;99.90
32612;DHT22;19030;49.478;8.986;2022-12-07T08:21:26;3.40;99.90
32612;DHT22;19030;49.478;8.986;2022-12-07T08:23:27;3.40;99.90
32612;DHT22;19030;49.478;8.986;2022-12-07T08:25:27;3.40;99.90
32612;DHT22;19030;49.478;8.986;2022-12-07T08:27:28;3.40;99.90
32612;DHT22;19030;49.478;8.986;2022-12-07T08:29:29;3.40;99.90
32612;DHT22;19030;49.478;8.986;2022-12-07T08:31:29;3.40;99.90
32612;DHT22;19030;49.478;8.986;2022-12-07T08:33:30;3.40;99.90
32612;DHT22;19030;49.478;8.986;2022-12-07T08:35:33;3.40;99.90
32612;DHT22;19030;49.478;8.986;2022-12-07T08:37:33;3.50;99.90
32612;DHT22;19030;49.478;8.986;2022-12-07T08:39:34;3.50;99.90
32612;DHT22;19030;49.478;8.986;2022-12-07T08:41:35;3.50;99.90
32612;DHT22;19030;49.478;8.986;2022-12-07T08:43:36;3.50;99.90
32612;DHT22;19030;49.478;8.986;2022-12-07T08:45:40;3.50;99.90
32612;DHT22;19030;49.478;8.986;2022-12-07T08:47:51;3.50;99.90
32612;DHT22;19030;49.478;8.986;2022-12-07T08:49:53;3.60;99.90
32612;DHT22;19030;49.478;8.986;2022-12-07T08:51:55;3.50;99.90
32612;DHT22;19030;49.478;8.986;2022-12-07T08:53:56;3.60;99.90
32612;DHT22;19030;49.478;8.986;2022-12-07T08:55:59;3.60;99.90
32612;DHT22;19030;49.478;8.986;2022-12-07T08:58:00;3.60;99.90
32612;DHT22;19030;49.478;8.986;2022-12-07T09:00:00;3.60;99.90
32612;DHT22;19030;49.478;8.986;2022-12-07T09:02:01;3.60;99.90
32612;DHT22;19030;49.478;8.986;2022-12-07T09:04:02;3.60;99.90
32612;DHT22;19030;49.478;8.986;2022-12-07T09:06:02;3.70;99.90
32612;DHT22;19030;49.478;8.986;2022-12-07T09:08:03;3.70;99.90
32612;DHT22;19030;49.478;8.986;2022-12-07T09:10:05;3.80;99.90
32612;DHT22;19030;49.478;8.986;2022-12-07T09:12:06;3.80;99.90
32612;DHT22;19030;49.478;8.986;2022-12-07T09:14:06;3.80;99.90
32612;DHT22;19030;49.478;8.986;2022-12-07T09:16:07;3.80;99.90
32612;DHT22;19030;49.478;8.986;2022-12-07T09:18:07;3.70;99.90
32612;DHT22;19030;49.478;8.986;2022-12-07T09:20:08;3.80;99.90
32612;DHT22;19030;49.478;8.986;2022-12-07T09:22:09;3.80;99.90
32612;DHT22;19030;49.478;8.986;2022-12-07T09:24:12;3.90;99.90
32612;DHT22;19030;49.478;8.986;2022-12-07T09:26:12;3.80;99.90
32612;DHT22;19030;49.478;8.986;2022-12-07T09:28:13;3.80;99.90
32612;DHT22;19030;49.478;8.986;2022-12-07T09:30:13;3.80;99.90
32612;DHT22;19030;49.478;8.986;2022-12-07T09:32:14;3.80;99.90
32612;DHT22;19030;49.478;8.986;2022-12-07T09:34:15;3.90;99.90
32612;DHT22;19030;49.478;8.986;2022-12-07T09:36:15;3.90;99.90
32612;DHT22;19030;49.478;8.986;2022-12-07T09:38:16;3.90;99.90
32612;DHT22;19030;49.478;8.986;2022-12-07T09:40:19;3.90;99.90
32612;DHT22;19030;49.478;8.986;2022-12-07T09:42:32;3.80;99.90
32612;DHT22;19030;49.478;8.986;2022-12-07T09:44:34;3.90;99.90
32612;DHT22;19030;49.478;8.986;2022-12-07T09:46:38;3.90;99.90
32612;DHT22;19030;49.478;8.986;2022-12-07T09:48:39;3.90;99.90
32612;DHT22;19030;49.478;8.986;2022-12-07T09:50:40;4.00;99.90
32612;DHT22;19030;49.478;8.986;2022-12-07T09:52:43;4.00;99.90
32612;DHT22;19030;49.478;8.986;2022-12-07T09:54:47;4.00;99.90
32612;DHT22;19030;49.478;8.986;2022-12-07T09:56:48;4.00;99.90
32612;DHT22;19030;49.478;8.986;2022-12-07T09:58:50;3.90;99.90
32612;DHT22;19030;49.478;8.986;2022-12-07T10:01:10;3.90;99.90
32612;DHT22;19030;49.478;8.986;2022-12-07T10:03:12;4.00;99.90
32612;DHT22;19030;49.478;8.986;2022-12-07T10:05:16;4.00;99.90
32612;DHT22;19030;49.478;8.986;2022-12-07T10:07:18;4.00;99.90
32612;DHT22;19030;49.478;8.986;2022-12-07T10:09:21;4.00;99.90
32612;DHT22;19030;49.478;8.986;2022-12-07T10:11:21;4.00;99.90
32612;DHT22;19030;49.478;8.986;2022-12-07T10:17:53;4.10;99.90
32612;DHT22;19030;49.478;8.986;2022-12-07T10:20:29;4.10;99.90
32612;DHT22;19030;49.478;8.986;2022-12-07T10:22:29;4.10;99.90
32612;DHT22;19030;49.478;8.986;2022-12-07T10:24:29;4.20;99.90
32612;DHT22;19030;49.478;8.986;2022-12-07T10:26:36;4.20;99.90
32612;DHT22;19030;49.478;8.986;2022-12-07T10:28:37;4.20;99.90
32612;DHT22;19030;49.478;8.986;2022-12-07T10:30:55;4.20;99.90
32612;DHT22;19030;49.478;8.986;2022-12-07T10:32:57;4.10;99.90
32612;DHT22;19030;49.478;8.986;2022-12-07T10:35:29;4.20;99.90
32612;DHT22;19030;49.478;8.986;2022-12-07T10:37:40;4.20;99.90
32612;DHT22;19030;49.478;8.986;2022-12-07T10:39:55;4.20;99.90
32612;DHT22;19030;49.478;8.986;2022-12-07T10:41:57;4.20;99.90
32612;DHT22;19030;49.478;8.986;2022-12-07T10:43:58;4.20;99.90
32612;DHT22;19030;49.478;8.986;2022-12-07T10:46:13;4.20;99.90
32612;DHT22;19030;49.478;8.986;2022-12-07T10:53:03;4.30;99.90
32612;DHT22;19030;49.478;8.986;2022-12-07T10:55:21;4.30;99.90
32612;DHT22;19030;49.478;8.986;2022-12-07T10:59:56;4.40;99.90
32612;DHT22;19030;49.478;8.986;2022-12-07T11:07:15;4.50;99.90
32612;DHT22;19030;49.478;8.986;2022-12-07T11:11:57;4.50;99.90
32612;DHT22;19030;49.478;8.986;2022-12-07T11:17:34;4.70;99.90
32612;DHT22;19030;49.478;8.986;2022-12-07T11:20:02;4.80;99.90
32612;DHT22;19030;49.478;8.986;2022-12-07T11:22:22;4.90;99.90
32612;DHT22;19030;49.478;8.986;2022-12-07T11:24:50;4.90;99.90
32612;DHT22;19030;49.478;8.986;2022-12-07T11:26:59;5.10;99.90
32612;DHT22;19030;49.478;8.986;2022-12-07T11:31:32;5.20;99.90
32612;DHT22;19030;49.478;8.986;2022-12-07T11:38:03;5.20;99.90
32612;DHT22;19030;49.478;8.986;2022-12-07T11:40:45;5.20;99.90
32612;DHT22;19030;49.478;8.986;2022-12-07T11:42:59;5.20;99.90
32612;DHT22;19030;49.478;8.986;2022-12-07T11:45:26;5.30;99.90
32612;DHT22;19030;49.478;8.986;2022-12-07T11:47:30;5.20;99.90
32612;DHT22;19030;49.478;8.986;2022-12-07T11:51:49;5.20;99.90
32612;DHT22;19030;49.478;8.986;2022-12-07T11:54:02;5.20;99.90
32612;DHT22;19030;49.478;8.986;2022-12-07T11:56:06;5.10;99.90
32612;DHT22;19030;49.478;8.986;2022-12-07T12:00:21;5.00;99.90
32612;DHT22;19030;49.478;8.986;2022-12-07T12:02:52;4.90;99.90
32612;DHT22;19030;49.478;8.986;2022-12-07T12:05:05;4.80;99.90
32612;DHT22;19030;49.478;8.986;2022-12-07T12:07:07;4.80;99.90
32612;DHT22;19030;49.478;8.986;2022-12-07T12:11:30;4.70;99.90
32612;DHT22;19030;49.478;8.986;2022-12-07T12:16:11;4.70;99.90
32612;DHT22;19030;49.478;8.986;2022-12-07T12:20:54;4.70;99.90
32612;DHT22;19030;49.478;8.986;2022-12-07T12:23:07;4.70;99.90
32612;DHT22;19030;49.478;8.986;2022-12-07T12:25:21;4.80;99.90
32612;DHT22;19030;49.478;8.986;2022-12-07T12:27:27;4.80;99.90
32612;DHT22;19030;49.478;8.986;2022-12-07T12:29:38;4.90;99.90
32612;DHT22;19030;49.478;8.986;2022-12-07T12:31:40;5.00;99.90
32612;DHT22;19030;49.478;8.986;2022-12-07T12:33:47;5.10;99.90
32612;DHT22;19030;49.478;8.986;2022-12-07T12:38:34;5.40;99.90
32612;DHT22;19030;49.478;8.986;2022-12-07T12:40:48;5.60;99.90
32612;DHT22;19030;49.478;8.986;2022-12-07T12:42:56;5.90;99.90
32612;DHT22;19030;49.478;8.986;2022-12-07T12:45:11;6.20;99.90
32612;DHT22;19030;49.478;8.986;2022-12-07T12:47:40;6.30;99.90
32612;DHT22;19030;49.478;8.986;2022-12-07T12:49:41;6.30;99.90
32612;DHT22;19030;49.478;8.986;2022-12-07T12:51:58;6.20;99.90
32612;DHT22;19030;49.478;8.986;2022-12-07T12:54:10;6.20;99.90
32612;DHT22;19030;49.478;8.986;2022-12-07T12:56:36;6.20;99.90
32612;DHT22;19030;49.478;8.986;2022-12-07T12:58:41;6.10;99.90
32612;DHT22;19030;49.478;8.986;2022-12-07T13:00:45;6.00;99.90
32612;DHT22;19030;49.478;8.986;2022-12-07T13:02:55;5.80;99.90
32612;DHT22;19030;49.478;8.986;2022-12-07T13:07:00;5.60;99.90
32612;DHT22;19030;49.478;8.986;2022-12-07T13:09:01;5.50;99.90
32612;DHT22;19030;49.478;8.986;2022-12-07T13:11:27;5.40;99.90
32612;DHT22;19030;49.478;8.986;2022-12-07T13:13:31;5.40;99.90
32612;DHT22;19030;49.478;8.986;2022-12-07T13:15:38;5.40;99.90
32612;DHT22;19030;49.478;8.986;2022-12-07T13:21:43;5.30;99.90
32612;DHT22;19030;49.478;8.986;2022-12-07T13:26:04;5.30;99.90
32612;DHT22;19030;49.478;8.986;2022-12-07T13:28:16;5.20;99.90
32612;DHT22;19030;49.478;8.986;2022-12-07T13:30:19;5.20;99.90
32612;DHT22;19030;49.478;8.986;2022-12-07T13:32:25;5.20;99.90
32612;DHT22;19030;49.478;8.986;2022-12-07T13:34:36;5.20;99.90
32612;DHT22;19030;49.478;8.986;2022-12-07T13:36:39;5.20;99.90
32612;DHT22;19030;49.478;8.986;2022-12-07T13:38:59;5.10;99.90
32612;DHT22;19030;49.478;8.986;2022-12-07T13:41:20;5.10;99.90
32612;DHT22;19030;49.478;8.986;2022-12-07T13:43:21;5.10;99.90
32612;DHT22;19030;49.478;8.986;2022-12-07T13:45:22;5.10;99.90
32612;DHT22;19030;49.478;8.986;2022-12-07T13:47:52;5.00;99.90
32612;DHT22;19030;49.478;8.986;2022-12-07T13:49:55;5.00;99.90
32612;DHT22;19030;49.478;8.986;2022-12-07T13:54:17;4.90;99.90
32612;DHT22;19030;49.478;8.986;2022-12-07T13:56:17;5.00;99.90
32612;DHT22;19030;49.478;8.986;2022-12-07T13:58:18;5.00;99.90
32612;DHT22;19030;49.478;8.986;2022-12-07T14:00:21;5.00;99.90
32612;DHT22;19030;49.478;8.986;2022-12-07T14:02:31;4.90;99.90
32612;DHT22;19030;49.478;8.986;2022-12-07T14:04:34;5.00;99.90
32612;DHT22;19030;49.478;8.986;2022-12-07T14:06:35;5.00;99.90
32612;DHT22;19030;49.478;8.986;2022-12-07T14:08:36;4.90;99.90
32612;DHT22;19030;49.478;8.986;2022-12-07T14:10:41;4.90;99.90
32612;DHT22;19030;49.478;8.986;2022-12-07T14:12:42;4.90;99.90
32612;DHT22;19030;49.478;8.986;2022-12-07T14:14:47;4.90;99.90
32612;DHT22;19030;49.478;8.986;2022-12-07T14:17:11;4.90;99.90
32612;DHT22;19030;49.478;8.986;2022-12-07T14:19:41;4.90;99.90
32612;DHT22;19030;49.478;8.986;2022-12-07T14:21:42;4.90;99.90
32612;DHT22;19030;49.478;8.986;2022-12-07T14:23:43;4.90;99.90
32612;DHT22;19030;49.478;8.986;2022-12-07T14:25:49;4.90;99.90
32612;DHT22;19030;49.478;8.986;2022-12-07T14:27:59;4.80;99.90
32612;DHT22;19030;49.478;8.986;2022-12-07T14:30:01;4.80;99.90
32612;DHT22;19030;49.478;8.986;2022-12-07T14:32:18;4.80;99.90
32612;DHT22;19030;49.478;8.986;2022-12-07T14:34:21;4.80;99.90